createdAt,value
2022-09-18T00:04:40.265Z,9.80
2022-09-18T00:07:30.658Z,9.90
2022-09-18T00:13:53.783Z,9.90
2022-09-18T00:16:45.165Z,9.90
2022-09-18T00:19:38.469Z,11.50
2022-09-18T00:22:29.376Z,10.00
2022-09-18T00:25:23.280Z,10.30
2022-09-18T00:28:19.093Z,9.90
2022-09-18T00:31:11.740Z,9.90
2022-09-18T00:34:04.506Z,9.90
2022-09-18T00:36:54.619Z,9.90
2022-09-18T00:39:45.389Z,9.60
2022-09-18T00:42:35.821Z,8.40
2022-09-18T00:45:29.950Z,10.00
2022-09-18T00:48:20.831Z,10.00
2022-09-18T00:51:13.641Z,10.20
2022-09-18T00:54:12.929Z,12.30
2022-09-18T00:57:08.254Z,10.20
2022-09-18T01:00:00.725Z,10.20
2022-09-18T01:02:54.352Z,10.30
2022-09-18T01:06:02.933Z,10.30
2022-09-18T01:11:55.738Z,10.30
2022-09-18T01:14:58.489Z,10.50
2022-09-18T01:18:10.172Z,10.40
2022-09-18T01:21:14.104Z,10.50
2022-09-18T01:27:09.493Z,10.60
2022-09-18T01:30:14.913Z,12.70
2022-09-18T01:39:15.915Z,10.50
2022-09-18T01:42:10.041Z,9.40
2022-09-18T01:45:09.475Z,10.50
2022-09-18T01:48:03.205Z,10.40
2022-09-18T01:50:59.131Z,12.30
2022-09-18T01:53:54.252Z,10.30
2022-09-18T01:56:48.723Z,10.30
2022-09-18T01:59:44.672Z,12.40
2022-09-18T02:05:51.324Z,10.10
2022-09-18T02:08:48.473Z,10.10
2022-09-18T02:11:41.242Z,10.00
2022-09-18T02:14:35.712Z,9.60
2022-09-18T02:17:29.726Z,9.90
2022-09-18T02:20:28.071Z,9.90
2022-09-18T02:26:19.630Z,9.90
2022-09-18T02:29:13.578Z,9.80
2022-09-18T02:32:04.842Z,9.70
2022-09-18T02:34:55.272Z,9.70
2022-09-18T02:37:58.052Z,9.70
2022-09-18T02:40:56.308Z,9.70
2022-09-18T02:43:56.193Z,9.70
2022-09-18T02:46:57.955Z,9.70
2022-09-18T02:49:58.149Z,9.70
2022-09-18T02:52:57.965Z,9.60
2022-09-18T02:55:52.448Z,10.00
2022-09-18T02:58:48.754Z,9.80
2022-09-18T03:01:43.615Z,10.10
2022-09-18T03:04:34.086Z,9.80
2022-09-18T03:07:24.268Z,9.90
2022-09-18T03:10:17.015Z,10.00
2022-09-18T03:13:07.077Z,10.00
2022-09-18T03:15:57.994Z,10.00
2022-09-18T03:18:48.144Z,10.00
2022-09-18T03:21:40.205Z,10.00
2022-09-18T03:24:31.651Z,10.20
2022-09-18T03:27:24.456Z,10.00
2022-09-18T03:30:15.347Z,10.00
2022-09-18T03:33:05.947Z,10.00
2022-09-18T03:35:56.032Z,9.60
2022-09-18T03:38:46.126Z,10.50
2022-09-18T03:41:39.854Z,9.80
2022-09-18T03:44:33.649Z,9.70
2022-09-18T03:47:23.876Z,9.60
2022-09-18T03:50:15.359Z,9.60
2022-09-18T03:53:06.309Z,10.30
2022-09-18T03:55:56.777Z,9.60
2022-09-18T03:58:47.250Z,9.60
2022-09-18T04:01:40.473Z,9.60
2022-09-18T04:04:32.785Z,9.60
2022-09-18T04:10:21.297Z,9.60
2022-09-18T04:13:15.882Z,9.50
2022-09-18T04:19:08.135Z,9.50
2022-09-18T04:25:09.415Z,9.70
2022-09-18T04:28:00.524Z,9.70
2022-09-18T04:30:52.252Z,9.80
2022-09-18T04:33:42.293Z,9.80
2022-09-18T04:36:36.305Z,10.20
2022-09-18T04:39:37.095Z,9.80
2022-09-18T04:42:27.576Z,9.80
2022-09-18T04:45:17.913Z,9.70
2022-09-18T04:48:18.207Z,9.80
2022-09-18T04:51:09.490Z,9.90
2022-09-18T04:54:02.553Z,9.80
2022-09-18T04:56:52.766Z,10.00
2022-09-18T04:59:43.178Z,10.20
2022-09-18T05:02:33.447Z,10.00
2022-09-18T05:05:23.900Z,10.00
2022-09-18T05:08:13.999Z,10.50
2022-09-18T05:11:07.902Z,10.00
2022-09-18T05:13:58.716Z,10.10
2022-09-18T05:16:50.266Z,10.10
2022-09-18T05:19:40.281Z,10.30
2022-09-18T05:22:31.156Z,10.30
2022-09-18T05:25:22.453Z,10.40
2022-09-18T05:28:16.444Z,10.70
2022-09-18T05:31:06.972Z,12.40
2022-09-18T05:33:57.324Z,10.60
2022-09-18T05:36:52.214Z,10.70
2022-09-18T05:39:43.479Z,10.80
2022-09-18T05:42:33.787Z,11.00
2022-09-18T05:45:26.878Z,10.90
2022-09-18T05:48:17.077Z,10.10
2022-09-18T05:51:07.658Z,11.00
2022-09-18T05:53:57.986Z,11.10
2022-09-18T05:56:48.405Z,12.90
2022-09-18T05:59:38.565Z,12.10
2022-09-18T06:02:32.325Z,11.90
2022-09-18T06:05:22.532Z,12.60
2022-09-18T06:08:14.783Z,13.80
2022-09-18T06:11:06.780Z,15.00
2022-09-18T06:13:57.680Z,16.20
2022-09-18T06:16:47.763Z,16.70
2022-09-18T06:19:40.684Z,17.30
2022-09-18T06:22:31.175Z,17.70
2022-09-18T06:25:23.997Z,18.60
2022-09-18T06:28:14.062Z,18.50
2022-09-18T06:31:11.095Z,18.70
2022-09-18T06:34:01.243Z,19.30
2022-09-18T06:36:54.409Z,19.70
2022-09-18T06:39:49.339Z,20.70
2022-09-18T06:42:43.913Z,20.30
2022-09-18T06:48:40.341Z,17.10
2022-09-18T06:51:31.176Z,15.80
2022-09-18T06:54:26.855Z,16.00
2022-09-18T06:57:16.986Z,14.50
2022-09-18T07:00:09.219Z,15.20
2022-09-18T07:05:52.467Z,13.30
2022-09-18T07:08:42.702Z,14.20
2022-09-18T07:11:36.613Z,13.00
2022-09-18T07:14:26.956Z,13.00
2022-09-18T07:17:19.223Z,13.40
2022-09-18T07:20:16.091Z,13.80
2022-09-18T07:23:06.606Z,14.10
2022-09-18T07:25:56.781Z,15.40
2022-09-18T07:28:49.453Z,15.70
2022-09-18T07:31:39.725Z,16.60
2022-09-18T07:34:30.134Z,16.90
2022-09-18T07:37:21.602Z,17.00
2022-09-18T07:40:14.815Z,16.60
2022-09-18T07:43:09.719Z,16.10
2022-09-18T07:46:02.829Z,16.20
2022-09-18T07:48:53.144Z,15.50
2022-09-18T07:51:43.349Z,15.60
2022-09-18T07:54:33.720Z,15.40
2022-09-18T07:57:24.032Z,14.70
2022-09-18T08:00:15.666Z,14.00
2022-09-18T08:03:11.808Z,13.70
2022-09-18T08:06:02.415Z,13.50
2022-09-18T08:08:55.027Z,13.50
2022-09-18T08:11:45.728Z,13.60
2022-09-18T08:14:36.848Z,14.10
2022-09-18T08:17:27.033Z,14.90
2022-09-18T08:20:27.799Z,15.90
2022-09-18T08:23:21.361Z,17.40
2022-09-18T08:26:12.097Z,17.70
2022-09-18T08:29:10.942Z,18.00
2022-09-18T08:35:23.868Z,15.50
2022-09-18T08:38:15.160Z,15.30
2022-09-18T08:41:32.605Z,15.30
2022-09-18T08:44:26.873Z,15.10
2022-09-18T08:47:22.812Z,15.10
2022-09-18T08:50:22.853Z,14.30
2022-09-18T08:53:21.884Z,14.50
2022-09-18T08:56:18.994Z,14.30
2022-09-18T08:59:16.384Z,15.20
2022-09-18T09:02:24.853Z,14.50
2022-09-18T09:05:19.145Z,14.60
2022-09-18T09:08:35.495Z,14.90
2022-09-18T09:11:37.302Z,15.60
2022-09-18T09:14:57.949Z,15.60
2022-09-18T09:24:09.792Z,13.30
2022-09-18T09:33:34.753Z,14.40
2022-09-18T09:36:43.990Z,14.30
2022-09-18T09:39:55.437Z,14.40
2022-09-18T09:42:52.635Z,15.20
2022-09-18T09:45:51.386Z,15.70
2022-09-18T09:48:49.992Z,17.00
2022-09-18T09:52:05.703Z,16.00
2022-09-18T09:55:08.889Z,15.90
2022-09-18T09:58:15.295Z,16.10
2022-09-18T10:01:16.894Z,16.20
2022-09-18T10:04:22.749Z,15.80
2022-09-18T10:07:23.137Z,15.60
2022-09-18T10:10:29.177Z,15.80
2022-09-18T10:13:26.551Z,16.40
2022-09-18T10:19:52.649Z,15.50
2022-09-18T10:32:02.168Z,15.80
2022-09-18T10:34:54.194Z,16.20
2022-09-18T10:40:49.971Z,16.20
2022-09-18T10:44:04.578Z,16.10
2022-09-18T10:59:56.213Z,14.80
2022-09-18T20:58:02.285Z,10.60
2022-09-18T21:29:50.271Z,10.90
2022-09-18T21:51:04.808Z,10.80
2022-09-18T22:14:24.881Z,10.80
2022-09-18T23:29:20.799Z,10.70
2022-09-18T23:53:52.018Z,10.70
